createdAt,value
2018-01-26T00:13:32.374Z,29.6
2018-01-26T00:28:32.205Z,28.4
2018-01-26T00:43:32.258Z,27.4
2018-01-26T00:58:32.291Z,28.5
2018-01-26T01:18:32.303Z,27.2
2018-01-26T01:33:32.331Z,30
2018-01-26T01:48:32.339Z,30.8
2018-01-26T02:08:32.331Z,29.2
2018-01-26T02:23:32.377Z,30.4
2018-01-26T02:38:32.545Z,28.2
2018-01-26T02:53:32.446Z,25.9
2018-01-26T03:13:32.286Z,28.6
2018-01-26T03:28:32.364Z,31.2
2018-01-26T03:43:32.315Z,30.3
2018-01-26T04:03:32.441Z,31.6
2018-01-26T04:18:32.350Z,31.2
2018-01-26T04:33:32.408Z,36.8
2018-01-26T05:08:32.559Z,36.2
2018-01-26T05:23:32.393Z,33.4
2018-01-26T05:38:42.461Z,47.8
2018-01-26T05:58:42.352Z,45.7
2018-01-26T06:13:32.493Z,39.7
2018-01-26T06:28:32.507Z,45.2
2018-01-26T06:43:32.679Z,46.9
2018-01-26T07:18:32.421Z,34.5
2018-01-26T07:33:32.600Z,35.8
2018-01-26T07:53:32.445Z,37.3
2018-01-26T08:08:32.457Z,34.6
2018-01-26T08:23:32.501Z,34.1
2018-01-26T08:38:32.601Z,36.4
2018-01-26T08:58:32.643Z,32.4
2018-01-26T09:13:32.638Z,31.8
2018-01-26T09:28:32.628Z,34.3
2018-01-26T09:48:32.618Z,29.2
2018-01-26T10:03:32.575Z,29
2018-01-26T10:18:32.814Z,30.9
2018-01-26T10:33:32.790Z,29.7
2018-01-26T10:53:32.707Z,31.2
2018-01-26T11:08:33.991Z,31.3
2018-01-26T11:23:32.629Z,31.6
2018-01-26T11:43:32.746Z,33.1
2018-01-26T11:58:32.675Z,32.1
2018-01-26T12:13:32.977Z,28.7
2018-01-26T12:28:33.173Z,32.4
2018-01-26T12:48:32.710Z,34.2
2018-01-26T13:18:32.784Z,33.7
2018-01-26T13:53:32.739Z,34.4
2018-01-26T14:08:33.391Z,29.9
